sensor_id;sensor_type;location;lat;lon;timestamp;P1;durP1;ratioP1;P2;durP2;ratioP2
20739;SDS011;10530;49.968;19.844;2023-12-20T00:03:55;12.20;;;5.05;;
20739;SDS011;10530;49.968;19.844;2023-12-20T00:08:59;17.38;;;5.18;;
20739;SDS011;10530;49.968;19.844;2023-12-20T00:14:01;13.27;;;4.23;;
20739;SDS011;10530;49.968;19.844;2023-12-20T00:19:05;16.63;;;5.25;;
20739;SDS011;10530;49.968;19.844;2023-12-20T00:24:08;15.83;;;5.80;;
20739;SDS011;10530;49.968;19.844;2023-12-20T00:29:11;11.05;;;4.22;;
20739;SDS011;10530;49.968;19.844;2023-12-20T00:34:14;13.23;;;5.05;;
20739;SDS011;10530;49.968;19.844;2023-12-20T00:39:17;16.77;;;5.80;;
20739;SDS011;10530;49.968;19.844;2023-12-20T00:44:20;16.75;;;5.78;;
20739;SDS011;10530;49.968;19.844;2023-12-20T00:49:23;14.83;;;4.73;;
20739;SDS011;10530;49.968;19.844;2023-12-20T00:54:26;13.52;;;5.25;;
20739;SDS011;10530;49.968;19.844;2023-12-20T00:59:29;6.65;;;3.17;;
20739;SDS011;10530;49.968;19.844;2023-12-20T01:04:32;6.43;;;2.57;;
20739;SDS011;10530;49.968;19.844;2023-12-20T01:09:35;7.45;;;2.80;;
20739;SDS011;10530;49.968;19.844;2023-12-20T01:14:38;8.33;;;2.90;;
20739;SDS011;10530;49.968;19.844;2023-12-20T01:19:41;13.27;;;4.10;;
20739;SDS011;10530;49.968;19.844;2023-12-20T01:24:44;11.27;;;4.30;;
20739;SDS011;10530;49.968;19.844;2023-12-20T01:29:47;15.33;;;4.63;;
20739;SDS011;10530;49.968;19.844;2023-12-20T01:34:50;14.40;;;4.68;;
20739;SDS011;10530;49.968;19.844;2023-12-20T01:39:53;13.70;;;4.90;;
20739;SDS011;10530;49.968;19.844;2023-12-20T01:44:56;11.65;;;4.20;;
20739;SDS011;10530;49.968;19.844;2023-12-20T01:50:00;10.23;;;4.05;;
20739;SDS011;10530;49.968;19.844;2023-12-20T01:55:06;15.30;;;4.57;;
20739;SDS011;10530;49.968;19.844;2023-12-20T02:00:15;7.32;;;3.20;;
20739;SDS011;10530;49.968;19.844;2023-12-20T02:05:19;6.90;;;1.50;;
20739;SDS011;10530;49.968;19.844;2023-12-20T02:10:23;5.45;;;2.05;;
20739;SDS011;10530;49.968;19.844;2023-12-20T02:15:27;4.38;;;1.90;;
20739;SDS011;10530;49.968;19.844;2023-12-20T02:20:30;5.67;;;1.70;;
20739;SDS011;10530;49.968;19.844;2023-12-20T02:25:33;5.53;;;2.45;;
20739;SDS011;10530;49.968;19.844;2023-12-20T02:30:36;4.83;;;2.07;;
20739;SDS011;10530;49.968;19.844;2023-12-20T02:35:39;6.10;;;2.00;;
20739;SDS011;10530;49.968;19.844;2023-12-20T02:40:42;4.88;;;2.00;;
20739;SDS011;10530;49.968;19.844;2023-12-20T02:45:50;4.70;;;1.50;;
20739;SDS011;10530;49.968;19.844;2023-12-20T02:50:53;4.53;;;1.58;;
20739;SDS011;10530;49.968;19.844;2023-12-20T02:55:57;4.63;;;1.67;;
20739;SDS011;10530;49.968;19.844;2023-12-20T03:01:00;3.90;;;1.35;;
20739;SDS011;10530;49.968;19.844;2023-12-20T03:06:03;6.35;;;1.90;;
20739;SDS011;10530;49.968;19.844;2023-12-20T03:11:06;6.97;;;2.20;;
20739;SDS011;10530;49.968;19.844;2023-12-20T03:16:09;5.30;;;2.45;;
20739;SDS011;10530;49.968;19.844;2023-12-20T03:21:13;6.33;;;2.20;;
20739;SDS011;10530;49.968;19.844;2023-12-20T03:26:16;5.43;;;1.58;;
20739;SDS011;10530;49.968;19.844;2023-12-20T03:31:19;4.32;;;1.80;;
20739;SDS011;10530;49.968;19.844;2023-12-20T03:36:23;7.07;;;2.00;;
20739;SDS011;10530;49.968;19.844;2023-12-20T03:41:26;5.32;;;1.80;;
20739;SDS011;10530;49.968;19.844;2023-12-20T03:46:28;4.83;;;1.63;;
20739;SDS011;10530;49.968;19.844;2023-12-20T03:51:31;6.07;;;2.08;;
20739;SDS011;10530;49.968;19.844;2023-12-20T03:56:36;7.32;;;2.10;;
20739;SDS011;10530;49.968;19.844;2023-12-20T04:01:42;7.40;;;2.30;;
20739;SDS011;10530;49.968;19.844;2023-12-20T04:06:47;7.50;;;2.63;;
20739;SDS011;10530;49.968;19.844;2023-12-20T04:11:50;9.03;;;2.70;;
20739;SDS011;10530;49.968;19.844;2023-12-20T04:16:53;7.40;;;2.70;;
20739;SDS011;10530;49.968;19.844;2023-12-20T04:21:56;7.07;;;2.83;;
20739;SDS011;10530;49.968;19.844;2023-12-20T04:26:59;8.17;;;2.70;;
20739;SDS011;10530;49.968;19.844;2023-12-20T04:32:03;7.70;;;2.65;;
20739;SDS011;10530;49.968;19.844;2023-12-20T04:37:06;8.63;;;3.47;;
20739;SDS011;10530;49.968;19.844;2023-12-20T04:42:09;7.93;;;2.95;;
20739;SDS011;10530;49.968;19.844;2023-12-20T04:47:12;8.40;;;2.88;;
20739;SDS011;10530;49.968;19.844;2023-12-20T04:52:15;8.47;;;2.67;;
20739;SDS011;10530;49.968;19.844;2023-12-20T04:57:18;8.05;;;2.80;;
20739;SDS011;10530;49.968;19.844;2023-12-20T05:02:21;7.57;;;2.53;;
20739;SDS011;10530;49.968;19.844;2023-12-20T05:07:24;7.95;;;2.30;;
20739;SDS011;10530;49.968;19.844;2023-12-20T05:12:27;6.57;;;2.35;;
20739;SDS011;10530;49.968;19.844;2023-12-20T05:17:30;6.03;;;2.43;;
20739;SDS011;10530;49.968;19.844;2023-12-20T05:22:33;5.13;;;2.13;;
20739;SDS011;10530;49.968;19.844;2023-12-20T05:27:36;6.87;;;2.53;;
20739;SDS011;10530;49.968;19.844;2023-12-20T05:32:39;4.55;;;1.42;;
20739;SDS011;10530;49.968;19.844;2023-12-20T05:37:42;9.07;;;2.47;;
20739;SDS011;10530;49.968;19.844;2023-12-20T05:42:46;8.47;;;2.80;;
20739;SDS011;10530;49.968;19.844;2023-12-20T05:47:49;6.25;;;2.63;;
20739;SDS011;10530;49.968;19.844;2023-12-20T05:52:52;4.30;;;1.97;;
20739;SDS011;10530;49.968;19.844;2023-12-20T05:57:55;4.28;;;1.83;;
20739;SDS011;10530;49.968;19.844;2023-12-20T06:02:59;5.85;;;2.42;;
20739;SDS011;10530;49.968;19.844;2023-12-20T06:08:02;6.73;;;2.70;;
20739;SDS011;10530;49.968;19.844;2023-12-20T06:13:05;7.63;;;3.28;;
20739;SDS011;10530;49.968;19.844;2023-12-20T06:18:09;6.10;;;2.70;;
20739;SDS011;10530;49.968;19.844;2023-12-20T06:23:12;8.57;;;3.25;;
20739;SDS011;10530;49.968;19.844;2023-12-20T06:28:15;8.05;;;3.20;;
20739;SDS011;10530;49.968;19.844;2023-12-20T06:33:18;7.50;;;3.33;;
20739;SDS011;10530;49.968;19.844;2023-12-20T06:38:23;8.98;;;3.45;;
20739;SDS011;10530;49.968;19.844;2023-12-20T06:43:26;5.67;;;2.23;;
20739;SDS011;10530;49.968;19.844;2023-12-20T06:48:47;11.23;;;3.50;;
20739;SDS011;10530;49.968;19.844;2023-12-20T06:53:51;14.13;;;3.80;;
20739;SDS011;10530;49.968;19.844;2023-12-20T06:58:54;8.90;;;3.63;;
20739;SDS011;10530;49.968;19.844;2023-12-20T07:03:57;7.05;;;3.03;;
20739;SDS011;10530;49.968;19.844;2023-12-20T07:09:00;9.80;;;4.17;;
20739;SDS011;10530;49.968;19.844;2023-12-20T07:14:03;11.23;;;3.78;;
20739;SDS011;10530;49.968;19.844;2023-12-20T07:19:07;8.10;;;3.05;;
20739;SDS011;10530;49.968;19.844;2023-12-20T07:24:10;10.70;;;4.17;;
20739;SDS011;10530;49.968;19.844;2023-12-20T07:29:13;10.40;;;3.63;;
20739;SDS011;10530;49.968;19.844;2023-12-20T07:34:16;9.43;;;4.37;;
20739;SDS011;10530;49.968;19.844;2023-12-20T07:39:19;12.02;;;3.78;;
20739;SDS011;10530;49.968;19.844;2023-12-20T07:44:22;5.57;;;2.17;;
20739;SDS011;10530;49.968;19.844;2023-12-20T07:49:25;13.13;;;4.50;;
20739;SDS011;10530;49.968;19.844;2023-12-20T07:54:28;13.88;;;4.95;;
20739;SDS011;10530;49.968;19.844;2023-12-20T07:59:31;12.93;;;5.33;;
20739;SDS011;10530;49.968;19.844;2023-12-20T08:04:35;10.70;;;3.88;;
20739;SDS011;10530;49.968;19.844;2023-12-20T08:09:38;6.78;;;2.80;;
20739;SDS011;10530;49.968;19.844;2023-12-20T08:14:41;11.13;;;4.10;;
20739;SDS011;10530;49.968;19.844;2023-12-20T08:19:44;8.25;;;3.42;;
20739;SDS011;10530;49.968;19.844;2023-12-20T08:24:47;11.20;;;2.83;;
20739;SDS011;10530;49.968;19.844;2023-12-20T08:29:50;13.07;;;4.70;;
20739;SDS011;10530;49.968;19.844;2023-12-20T08:34:53;9.10;;;3.47;;
20739;SDS011;10530;49.968;19.844;2023-12-20T08:39:56;6.37;;;2.10;;
20739;SDS011;10530;49.968;19.844;2023-12-20T08:44:59;8.65;;;3.75;;
20739;SDS011;10530;49.968;19.844;2023-12-20T08:50:02;7.90;;;3.70;;
20739;SDS011;10530;49.968;19.844;2023-12-20T08:55:06;10.55;;;5.38;;
20739;SDS011;10530;49.968;19.844;2023-12-20T09:00:10;11.82;;;4.65;;
20739;SDS011;10530;49.968;19.844;2023-12-20T09:05:13;12.00;;;5.47;;
20739;SDS011;10530;49.968;19.844;2023-12-20T09:10:16;10.40;;;4.38;;
20739;SDS011;10530;49.968;19.844;2023-12-20T09:15:24;10.63;;;5.07;;
20739;SDS011;10530;49.968;19.844;2023-12-20T09:20:29;11.48;;;4.55;;
20739;SDS011;10530;49.968;19.844;2023-12-20T09:25:32;15.13;;;5.55;;
20739;SDS011;10530;49.968;19.844;2023-12-20T09:30:35;15.70;;;5.47;;
20739;SDS011;10530;49.968;19.844;2023-12-20T09:35:42;15.68;;;5.30;;
20739;SDS011;10530;49.968;19.844;2023-12-20T09:40:46;22.67;;;5.90;;
20739;SDS011;10530;49.968;19.844;2023-12-20T09:45:49;16.48;;;4.63;;
20739;SDS011;10530;49.968;19.844;2023-12-20T09:50:56;12.77;;;3.78;;
20739;SDS011;10530;49.968;19.844;2023-12-20T09:55:59;6.30;;;3.00;;
20739;SDS011;10530;49.968;19.844;2023-12-20T10:01:03;14.52;;;4.97;;
20739;SDS011;10530;49.968;19.844;2023-12-20T10:06:06;6.53;;;2.93;;
20739;SDS011;10530;49.968;19.844;2023-12-20T10:11:09;15.32;;;5.15;;
20739;SDS011;10530;49.968;19.844;2023-12-20T10:16:13;11.27;;;4.65;;
20739;SDS011;10530;49.968;19.844;2023-12-20T10:21:16;11.97;;;5.27;;
20739;SDS011;10530;49.968;19.844;2023-12-20T10:26:21;11.73;;;5.03;;
20739;SDS011;10530;49.968;19.844;2023-12-20T10:36:35;6.45;;;2.58;;
20739;SDS011;10530;49.968;19.844;2023-12-20T10:41:38;7.03;;;2.80;;
20739;SDS011;10530;49.968;19.844;2023-12-20T10:46:44;5.80;;;1.90;;
20739;SDS011;10530;49.968;19.844;2023-12-20T10:51:54;4.00;;;1.60;;
20739;SDS011;10530;49.968;19.844;2023-12-20T10:56:59;2.77;;;0.90;;
20739;SDS011;10530;49.968;19.844;2023-12-20T11:02:06;3.90;;;1.27;;
20739;SDS011;10530;49.968;19.844;2023-12-20T11:17:38;4.70;;;1.70;;
20739;SDS011;10530;49.968;19.844;2023-12-20T11:22:51;4.67;;;1.70;;
20739;SDS011;10530;49.968;19.844;2023-12-20T11:28:10;3.67;;;1.25;;
20739;SDS011;10530;49.968;19.844;2023-12-20T11:33:14;4.57;;;2.00;;
20739;SDS011;10530;49.968;19.844;2023-12-20T11:38:21;7.17;;;2.00;;
20739;SDS011;10530;49.968;19.844;2023-12-20T11:43:31;4.00;;;1.55;;
20739;SDS011;10530;49.968;19.844;2023-12-20T11:48:39;4.40;;;1.63;;
20739;SDS011;10530;49.968;19.844;2023-12-20T11:53:42;3.60;;;1.05;;
20739;SDS011;10530;49.968;19.844;2023-12-20T11:58:45;3.75;;;1.60;;
20739;SDS011;10530;49.968;19.844;2023-12-20T12:04:02;6.27;;;2.80;;
20739;SDS011;10530;49.968;19.844;2023-12-20T12:09:06;6.00;;;2.20;;
20739;SDS011;10530;49.968;19.844;2023-12-20T12:14:09;6.30;;;2.10;;
20739;SDS011;10530;49.968;19.844;2023-12-20T12:19:19;3.40;;;1.48;;
20739;SDS011;10530;49.968;19.844;2023-12-20T12:24:26;3.10;;;1.30;;
20739;SDS011;10530;49.968;19.844;2023-12-20T12:29:29;4.23;;;2.00;;
20739;SDS011;10530;49.968;19.844;2023-12-20T12:34:33;6.38;;;2.90;;
20739;SDS011;10530;49.968;19.844;2023-12-20T12:39:37;2.83;;;1.03;;
20739;SDS011;10530;49.968;19.844;2023-12-20T12:44:41;4.68;;;1.75;;
20739;SDS011;10530;49.968;19.844;2023-12-20T12:49:45;5.15;;;2.10;;
20739;SDS011;10530;49.968;19.844;2023-12-20T12:54:48;8.53;;;2.57;;
20739;SDS011;10530;49.968;19.844;2023-12-20T12:59:51;4.68;;;1.92;;
20739;SDS011;10530;49.968;19.844;2023-12-20T13:04:55;5.90;;;1.83;;
20739;SDS011;10530;49.968;19.844;2023-12-20T13:09:58;4.10;;;1.73;;
20739;SDS011;10530;49.968;19.844;2023-12-20T13:15:01;5.28;;;2.08;;
20739;SDS011;10530;49.968;19.844;2023-12-20T13:20:06;3.33;;;1.07;;
20739;SDS011;10530;49.968;19.844;2023-12-20T13:25:10;4.20;;;2.00;;
20739;SDS011;10530;49.968;19.844;2023-12-20T13:30:13;7.47;;;2.17;;
20739;SDS011;10530;49.968;19.844;2023-12-20T13:35:18;4.90;;;1.75;;
20739;SDS011;10530;49.968;19.844;2023-12-20T13:40:21;3.50;;;1.08;;
20739;SDS011;10530;49.968;19.844;2023-12-20T13:45:24;5.43;;;2.30;;
20739;SDS011;10530;49.968;19.844;2023-12-20T13:50:27;5.18;;;1.83;;
20739;SDS011;10530;49.968;19.844;2023-12-20T13:55:31;5.70;;;2.33;;
20739;SDS011;10530;49.968;19.844;2023-12-20T14:00:34;8.88;;;2.30;;
20739;SDS011;10530;49.968;19.844;2023-12-20T14:05:38;5.13;;;2.10;;
20739;SDS011;10530;49.968;19.844;2023-12-20T14:10:42;8.47;;;2.00;;
20739;SDS011;10530;49.968;19.844;2023-12-20T14:15:45;6.35;;;2.28;;
20739;SDS011;10530;49.968;19.844;2023-12-20T14:20:49;4.50;;;1.80;;
20739;SDS011;10530;49.968;19.844;2023-12-20T14:25:53;5.88;;;1.77;;
20739;SDS011;10530;49.968;19.844;2023-12-20T14:30:58;4.90;;;1.75;;
20739;SDS011;10530;49.968;19.844;2023-12-20T14:36:01;4.73;;;1.90;;
20739;SDS011;10530;49.968;19.844;2023-12-20T14:41:07;4.95;;;1.48;;
20739;SDS011;10530;49.968;19.844;2023-12-20T14:46:10;4.47;;;2.03;;
20739;SDS011;10530;49.968;19.844;2023-12-20T14:51:14;6.28;;;2.40;;
20739;SDS011;10530;49.968;19.844;2023-12-20T14:56:17;6.40;;;2.47;;
20739;SDS011;10530;49.968;19.844;2023-12-20T15:01:20;7.23;;;2.83;;
20739;SDS011;10530;49.968;19.844;2023-12-20T15:06:24;9.30;;;3.20;;
20739;SDS011;10530;49.968;19.844;2023-12-20T15:11:28;5.70;;;2.47;;
20739;SDS011;10530;49.968;19.844;2023-12-20T15:16:31;6.88;;;3.13;;
20739;SDS011;10530;49.968;19.844;2023-12-20T15:21:34;3.72;;;1.35;;
20739;SDS011;10530;49.968;19.844;2023-12-20T15:26:46;4.90;;;2.43;;
20739;SDS011;10530;49.968;19.844;2023-12-20T15:31:50;6.82;;;2.67;;
20739;SDS011;10530;49.968;19.844;2023-12-20T15:36:53;5.77;;;2.47;;
20739;SDS011;10530;49.968;19.844;2023-12-20T15:41:56;8.38;;;2.70;;
20739;SDS011;10530;49.968;19.844;2023-12-20T15:47:00;7.10;;;2.13;;
20739;SDS011;10530;49.968;19.844;2023-12-20T15:52:03;5.30;;;2.00;;
20739;SDS011;10530;49.968;19.844;2023-12-20T15:57:08;4.00;;;1.63;;
20739;SDS011;10530;49.968;19.844;2023-12-20T16:02:12;6.70;;;2.80;;
20739;SDS011;10530;49.968;19.844;2023-12-20T16:07:15;5.72;;;2.00;;
20739;SDS011;10530;49.968;19.844;2023-12-20T16:12:18;6.10;;;2.70;;
20739;SDS011;10530;49.968;19.844;2023-12-20T16:17:21;8.07;;;2.47;;
20739;SDS011;10530;49.968;19.844;2023-12-20T16:22:24;7.07;;;2.88;;
20739;SDS011;10530;49.968;19.844;2023-12-20T16:27:28;9.13;;;2.80;;
20739;SDS011;10530;49.968;19.844;2023-12-20T16:32:31;9.98;;;3.53;;
20739;SDS011;10530;49.968;19.844;2023-12-20T16:37:35;6.45;;;2.50;;
20739;SDS011;10530;49.968;19.844;2023-12-20T16:42:40;2.83;;;1.27;;
20739;SDS011;10530;49.968;19.844;2023-12-20T16:47:43;7.68;;;2.78;;
20739;SDS011;10530;49.968;19.844;2023-12-20T16:52:47;5.97;;;2.00;;
20739;SDS011;10530;49.968;19.844;2023-12-20T16:57:53;7.45;;;2.33;;
20739;SDS011;10530;49.968;19.844;2023-12-20T17:02:56;7.78;;;2.38;;
20739;SDS011;10530;49.968;19.844;2023-12-20T17:07:59;8.90;;;2.80;;
20739;SDS011;10530;49.968;19.844;2023-12-20T17:13:02;8.05;;;3.47;;
20739;SDS011;10530;49.968;19.844;2023-12-20T17:18:05;7.03;;;3.07;;
20739;SDS011;10530;49.968;19.844;2023-12-20T17:23:08;8.38;;;2.78;;
20739;SDS011;10530;49.968;19.844;2023-12-20T17:28:11;8.02;;;3.08;;
20739;SDS011;10530;49.968;19.844;2023-12-20T17:33:15;7.47;;;2.70;;
20739;SDS011;10530;49.968;19.844;2023-12-20T17:38:19;10.77;;;3.47;;
20739;SDS011;10530;49.968;19.844;2023-12-20T17:43:22;7.63;;;2.70;;
20739;SDS011;10530;49.968;19.844;2023-12-20T17:48:25;8.65;;;3.13;;
20739;SDS011;10530;49.968;19.844;2023-12-20T17:53:28;9.57;;;3.08;;
20739;SDS011;10530;49.968;19.844;2023-12-20T17:58:30;7.20;;;2.80;;
20739;SDS011;10530;49.968;19.844;2023-12-20T18:03:33;8.32;;;3.08;;
20739;SDS011;10530;49.968;19.844;2023-12-20T18:08:36;9.60;;;3.17;;
20739;SDS011;10530;49.968;19.844;2023-12-20T18:13:39;5.53;;;2.58;;
20739;SDS011;10530;49.968;19.844;2023-12-20T18:18:43;6.68;;;2.95;;
20739;SDS011;10530;49.968;19.844;2023-12-20T18:23:46;8.90;;;2.53;;
20739;SDS011;10530;49.968;19.844;2023-12-20T18:28:50;11.68;;;4.00;;
20739;SDS011;10530;49.968;19.844;2023-12-20T18:33:53;7.23;;;2.50;;
20739;SDS011;10530;49.968;19.844;2023-12-20T18:38:56;5.90;;;2.10;;
20739;SDS011;10530;49.968;19.844;2023-12-20T18:44:00;4.63;;;1.65;;
20739;SDS011;10530;49.968;19.844;2023-12-20T18:49:04;5.50;;;1.83;;
20739;SDS011;10530;49.968;19.844;2023-12-20T18:54:09;7.43;;;2.72;;
20739;SDS011;10530;49.968;19.844;2023-12-20T18:59:12;3.50;;;1.53;;
20739;SDS011;10530;49.968;19.844;2023-12-20T19:04:18;4.38;;;1.50;;
20739;SDS011;10530;49.968;19.844;2023-12-20T19:09:21;6.82;;;1.73;;
20739;SDS011;10530;49.968;19.844;2023-12-20T19:14:24;2.77;;;1.07;;
20739;SDS011;10530;49.968;19.844;2023-12-20T19:19:27;6.38;;;1.95;;
20739;SDS011;10530;49.968;19.844;2023-12-20T19:24:30;3.80;;;1.60;;
20739;SDS011;10530;49.968;19.844;2023-12-20T19:29:33;3.78;;;1.23;;
20739;SDS011;10530;49.968;19.844;2023-12-20T19:34:37;2.90;;;1.10;;
20739;SDS011;10530;49.968;19.844;2023-12-20T19:39:40;3.67;;;1.50;;
20739;SDS011;10530;49.968;19.844;2023-12-20T19:44:46;2.20;;;0.57;;
20739;SDS011;10530;49.968;19.844;2023-12-20T19:49:50;3.70;;;1.20;;
20739;SDS011;10530;49.968;19.844;2023-12-20T19:54:53;2.42;;;0.80;;
20739;SDS011;10530;49.968;19.844;2023-12-20T19:59:56;3.63;;;1.13;;
20739;SDS011;10530;49.968;19.844;2023-12-20T20:05:00;4.40;;;1.50;;
20739;SDS011;10530;49.968;19.844;2023-12-20T20:10:03;3.03;;;1.20;;
20739;SDS011;10530;49.968;19.844;2023-12-20T20:15:07;6.17;;;1.60;;
20739;SDS011;10530;49.968;19.844;2023-12-20T20:20:10;6.20;;;1.75;;
20739;SDS011;10530;49.968;19.844;2023-12-20T20:25:13;8.50;;;2.13;;
20739;SDS011;10530;49.968;19.844;2023-12-20T20:30:16;8.33;;;2.27;;
20739;SDS011;10530;49.968;19.844;2023-12-20T20:35:19;6.75;;;1.95;;
20739;SDS011;10530;49.968;19.844;2023-12-20T20:40:25;7.83;;;1.90;;
20739;SDS011;10530;49.968;19.844;2023-12-20T20:45:28;6.60;;;2.13;;
20739;SDS011;10530;49.968;19.844;2023-12-20T20:50:31;6.15;;;2.30;;
20739;SDS011;10530;49.968;19.844;2023-12-20T20:55:34;5.87;;;2.07;;
20739;SDS011;10530;49.968;19.844;2023-12-20T21:00:38;4.65;;;1.38;;
20739;SDS011;10530;49.968;19.844;2023-12-20T21:05:42;5.10;;;1.40;;
20739;SDS011;10530;49.968;19.844;2023-12-20T21:10:45;5.47;;;2.17;;
20739;SDS011;10530;49.968;19.844;2023-12-20T21:15:49;5.55;;;1.90;;
20739;SDS011;10530;49.968;19.844;2023-12-20T21:20:52;2.47;;;0.63;;
20739;SDS011;10530;49.968;19.844;2023-12-20T21:25:56;3.30;;;1.13;;
20739;SDS011;10530;49.968;19.844;2023-12-20T21:30:59;3.40;;;1.07;;
20739;SDS011;10530;49.968;19.844;2023-12-20T21:36:02;1.85;;;0.50;;
20739;SDS011;10530;49.968;19.844;2023-12-20T21:41:06;2.88;;;1.02;;
20739;SDS011;10530;49.968;19.844;2023-12-20T21:46:12;2.60;;;1.03;;
20739;SDS011;10530;49.968;19.844;2023-12-20T21:51:15;3.05;;;0.75;;
20739;SDS011;10530;49.968;19.844;2023-12-20T21:56:19;3.57;;;0.73;;
20739;SDS011;10530;49.968;19.844;2023-12-20T22:01:23;3.15;;;0.85;;
20739;SDS011;10530;49.968;19.844;2023-12-20T22:06:26;3.55;;;0.80;;
20739;SDS011;10530;49.968;19.844;2023-12-20T22:11:29;3.83;;;0.97;;
20739;SDS011;10530;49.968;19.844;2023-12-20T22:16:32;2.60;;;1.02;;
20739;SDS011;10530;49.968;19.844;2023-12-20T22:21:38;4.20;;;1.00;;
20739;SDS011;10530;49.968;19.844;2023-12-20T22:26:41;5.40;;;1.30;;
20739;SDS011;10530;49.968;19.844;2023-12-20T22:31:44;3.00;;;0.80;;
20739;SDS011;10530;49.968;19.844;2023-12-20T22:36:47;3.97;;;1.17;;
20739;SDS011;10530;49.968;19.844;2023-12-20T22:41:50;3.20;;;0.80;;
20739;SDS011;10530;49.968;19.844;2023-12-20T22:46:53;3.20;;;1.00;;
20739;SDS011;10530;49.968;19.844;2023-12-20T22:51:56;1.58;;;0.50;;
20739;SDS011;10530;49.968;19.844;2023-12-20T22:56:59;2.88;;;1.00;;
20739;SDS011;10530;49.968;19.844;2023-12-20T23:02:02;2.80;;;0.80;;
20739;SDS011;10530;49.968;19.844;2023-12-20T23:07:06;4.43;;;1.40;;
20739;SDS011;10530;49.968;19.844;2023-12-20T23:12:09;2.80;;;0.90;;
20739;SDS011;10530;49.968;19.844;2023-12-20T23:17:12;4.30;;;1.10;;
20739;SDS011;10530;49.968;19.844;2023-12-20T23:22:15;1.67;;;0.65;;
20739;SDS011;10530;49.968;19.844;2023-12-20T23:27:18;4.67;;;1.17;;
20739;SDS011;10530;49.968;19.844;2023-12-20T23:32:21;2.70;;;1.10;;
20739;SDS011;10530;49.968;19.844;2023-12-20T23:37:24;3.20;;;1.00;;
20739;SDS011;10530;49.968;19.844;2023-12-20T23:42:27;3.15;;;1.10;;
20739;SDS011;10530;49.968;19.844;2023-12-20T23:47:30;2.45;;;0.85;;
20739;SDS011;10530;49.968;19.844;2023-12-20T23:52:33;2.70;;;0.97;;
20739;SDS011;10530;49.968;19.844;2023-12-20T23:57:36;2.72;;;0.98;;
